createdAt,value
2022-09-21T00:01:35.693Z,23.85
2022-09-21T00:04:04.111Z,16.75
2022-09-21T00:06:34.403Z,20.15
2022-09-21T00:09:04.052Z,20.38
2022-09-21T00:11:33.033Z,19.45
2022-09-21T00:14:10.669Z,25.33
2022-09-21T00:16:40.977Z,21.92
2022-09-21T00:19:08.220Z,17.88
2022-09-21T00:21:36.248Z,19.98
2022-09-21T00:24:07.341Z,22.60
2022-09-21T00:26:34.442Z,24.20
2022-09-21T00:29:03.328Z,24.10
2022-09-21T00:31:34.309Z,28.45
2022-09-21T00:34:03.518Z,29.85
2022-09-21T00:36:30.657Z,28.95
2022-09-21T00:39:01.613Z,22.67
2022-09-21T00:41:30.952Z,20.40
2022-09-21T00:44:22.241Z,22.77
2022-09-21T00:46:54.037Z,22.73
2022-09-21T00:49:24.280Z,23.75
2022-09-21T00:51:53.263Z,20.02
2022-09-21T00:54:29.449Z,24.63
2022-09-21T00:56:57.991Z,30.33
2022-09-21T00:59:29.922Z,23.92
2022-09-21T01:01:59.308Z,24.65
2022-09-21T01:04:28.353Z,25.92
2022-09-21T01:06:58.256Z,20.90
2022-09-21T01:09:25.895Z,25.08
2022-09-21T01:12:04.384Z,20.15
2022-09-21T01:14:53.519Z,24.35
2022-09-21T01:17:45.345Z,20.20
2022-09-21T01:20:24.212Z,28.00
2022-09-21T01:23:23.427Z,22.95
2022-09-21T01:25:57.668Z,19.50
2022-09-21T01:29:10.495Z,20.42
2022-09-21T01:31:55.057Z,19.13
2022-09-21T01:34:26.955Z,18.48
2022-09-21T01:36:58.000Z,18.23
2022-09-21T01:39:26.442Z,26.23
2022-09-21T01:41:55.522Z,18.77
2022-09-21T01:44:28.852Z,22.83
2022-09-21T01:46:57.670Z,18.98
2022-09-21T01:49:35.000Z,22.02
2022-09-21T01:52:29.912Z,26.90
2022-09-21T01:55:03.683Z,20.55
2022-09-21T01:57:41.667Z,27.15
2022-09-21T02:00:09.295Z,20.08
2022-09-21T02:03:16.348Z,24.40
2022-09-21T02:05:43.346Z,25.45
2022-09-21T02:08:11.260Z,21.40
2022-09-21T02:10:50.877Z,22.38
2022-09-21T02:13:20.374Z,19.52
2022-09-21T02:15:55.504Z,22.50
2022-09-21T02:18:24.820Z,21.40
2022-09-21T02:20:57.899Z,23.13
2022-09-21T02:23:32.810Z,29.35
2022-09-21T02:26:12.652Z,20.98
2022-09-21T02:29:14.640Z,22.98
2022-09-21T02:32:17.068Z,20.98
2022-09-21T02:35:22.506Z,21.17
2022-09-21T02:37:58.969Z,26.40
2022-09-21T02:40:40.178Z,14.95
2022-09-21T02:43:16.140Z,21.75
2022-09-21T02:45:56.697Z,18.13
2022-09-21T02:48:30.362Z,19.67
2022-09-21T02:51:06.070Z,16.50
2022-09-21T02:53:38.135Z,19.85
2022-09-21T02:56:07.455Z,15.68
2022-09-21T02:58:46.678Z,15.63
2022-09-21T03:01:15.985Z,19.00
2022-09-21T03:03:43.113Z,18.65
2022-09-21T03:06:10.094Z,19.42
2022-09-21T03:08:36.919Z,19.73
2022-09-21T03:11:03.778Z,16.80
2022-09-21T03:13:30.672Z,17.42
2022-09-21T03:16:03.614Z,17.25
2022-09-21T03:18:31.117Z,17.73
2022-09-21T03:20:58.630Z,17.00
2022-09-21T03:23:25.828Z,14.02
2022-09-21T03:25:52.747Z,15.85
2022-09-21T03:28:19.999Z,18.85
2022-09-21T03:30:48.586Z,16.20
2022-09-21T03:33:19.697Z,11.63
2022-09-21T03:35:51.595Z,16.77
2022-09-21T03:38:19.469Z,21.15
2022-09-21T03:40:47.942Z,17.27
2022-09-21T03:43:15.100Z,19.55
2022-09-21T03:45:43.269Z,15.55
2022-09-21T03:48:11.774Z,15.85
2022-09-21T03:50:39.265Z,16.10
2022-09-21T03:53:08.108Z,14.55
2022-09-21T03:55:36.733Z,15.93
2022-09-21T03:58:05.406Z,17.58
2022-09-21T04:00:33.051Z,18.13
2022-09-21T04:03:00.266Z,15.05
2022-09-21T04:05:28.403Z,14.98
2022-09-21T04:07:56.886Z,14.70
2022-09-21T04:10:29.298Z,16.35
2022-09-21T04:13:04.385Z,17.95
2022-09-21T04:15:32.738Z,12.88
2022-09-21T04:18:00.665Z,16.05
2022-09-21T04:20:27.618Z,15.35
2022-09-21T04:22:54.570Z,15.38
2022-09-21T04:25:23.735Z,13.38
2022-09-21T04:27:50.829Z,14.95
2022-09-21T04:30:17.863Z,15.00
2022-09-21T04:32:45.029Z,14.20
2022-09-21T04:35:12.006Z,15.88
2022-09-21T04:37:38.887Z,19.42
2022-09-21T04:40:07.132Z,14.40
2022-09-21T04:42:34.119Z,18.23
2022-09-21T04:45:01.101Z,17.80
2022-09-21T04:47:30.473Z,20.02
2022-09-21T04:49:57.630Z,18.30
2022-09-21T04:52:24.623Z,19.90
2022-09-21T04:54:51.425Z,15.85
2022-09-21T04:57:18.301Z,14.75
2022-09-21T04:59:45.365Z,13.63
2022-09-21T05:02:12.215Z,14.00
2022-09-21T05:04:42.362Z,16.98
2022-09-21T05:07:09.311Z,16.33
2022-09-21T05:09:56.623Z,14.02
2022-09-21T05:12:23.752Z,21.38
2022-09-21T05:14:53.680Z,13.88
2022-09-21T05:17:23.133Z,15.50
2022-09-21T05:19:51.521Z,17.70
2022-09-21T05:22:18.811Z,20.45
2022-09-21T05:24:45.952Z,15.32
2022-09-21T05:27:13.255Z,15.85
2022-09-21T05:29:41.231Z,18.52
2022-09-21T05:32:27.434Z,23.40
2022-09-21T05:39:08.033Z,23.92
2022-09-21T05:41:35.294Z,21.50
2022-09-21T05:44:04.653Z,19.88
2022-09-21T05:47:07.058Z,18.38
2022-09-21T05:50:00.862Z,16.20
2022-09-21T05:52:40.571Z,20.13
2022-09-21T05:55:39.544Z,23.27
2022-09-21T05:58:33.545Z,19.83
2022-09-21T06:01:31.536Z,21.58
2022-09-21T06:03:59.988Z,21.80
2022-09-21T06:06:32.351Z,22.85
2022-09-21T06:09:02.400Z,22.33
2022-09-21T06:11:29.294Z,20.88
2022-09-21T06:13:57.109Z,22.92
2022-09-21T06:16:24.241Z,20.48
2022-09-21T06:18:52.849Z,23.35
2022-09-21T06:21:20.865Z,20.65
2022-09-21T06:23:47.806Z,20.92
2022-09-21T06:26:14.683Z,22.10
2022-09-21T06:28:41.647Z,27.25
2022-09-21T06:31:08.662Z,21.45
2022-09-21T06:33:38.166Z,21.63
2022-09-21T06:36:06.399Z,21.63
2022-09-21T06:38:35.305Z,24.60
2022-09-21T06:41:04.583Z,24.67
2022-09-21T06:43:32.415Z,30.05
2022-09-21T06:46:01.647Z,27.42
2022-09-21T06:48:29.805Z,28.15
2022-09-21T06:51:02.249Z,52.63
2022-09-21T06:53:30.642Z,44.22
2022-09-21T06:56:04.847Z,45.75
2022-09-21T06:58:34.599Z,40.50
2022-09-21T07:01:10.699Z,50.63
2022-09-21T07:03:39.064Z,43.15
2022-09-21T07:06:06.787Z,52.08
2022-09-21T07:11:22.008Z,34.78
2022-09-21T07:13:49.234Z,35.35
2022-09-21T07:16:16.825Z,32.63
2022-09-21T07:18:44.770Z,32.08
2022-09-21T07:21:13.158Z,35.90
2022-09-21T07:24:11.723Z,36.65
2022-09-21T07:26:39.550Z,39.10
2022-09-21T07:29:06.988Z,33.17
2022-09-21T07:31:35.225Z,46.53
2022-09-21T07:34:02.253Z,36.53
2022-09-21T07:36:31.221Z,44.05
2022-09-21T07:38:59.180Z,44.55
2022-09-21T07:41:26.177Z,33.33
2022-09-21T07:43:56.016Z,33.65
2022-09-21T07:46:23.254Z,27.48
2022-09-21T07:48:54.320Z,34.63
2022-09-21T07:51:21.613Z,28.20
2022-09-21T07:53:48.567Z,28.50
2022-09-21T07:56:17.807Z,26.65
2022-09-21T07:59:03.239Z,29.88
2022-09-21T08:01:31.108Z,22.92
2022-09-21T08:03:58.876Z,25.70
2022-09-21T08:06:27.992Z,32.88
2022-09-21T08:08:57.743Z,28.88
2022-09-21T08:11:25.929Z,23.83
2022-09-21T08:13:54.696Z,25.08
2022-09-21T08:16:22.678Z,24.98
2022-09-21T08:18:51.414Z,19.38
2022-09-21T08:21:18.741Z,19.30
2022-09-21T08:23:46.016Z,21.73
2022-09-21T08:26:19.422Z,20.58
2022-09-21T08:28:49.318Z,17.25
2022-09-21T08:31:19.625Z,21.13
2022-09-21T08:33:48.994Z,23.10
2022-09-21T08:36:16.088Z,13.93
2022-09-21T08:38:43.069Z,14.10
2022-09-21T08:41:53.622Z,15.80
2022-09-21T08:44:28.868Z,13.23
2022-09-21T08:47:06.659Z,20.67
2022-09-21T08:49:36.566Z,13.80
2022-09-21T08:52:09.316Z,13.25
2022-09-21T08:54:43.558Z,14.60
2022-09-21T08:57:16.340Z,11.23
2022-09-21T08:59:46.900Z,8.25
2022-09-21T09:02:29.849Z,8.25
2022-09-21T09:05:33.877Z,13.85
2022-09-21T09:08:12.855Z,11.68
2022-09-21T09:10:54.762Z,15.50
2022-09-21T09:13:31.344Z,12.57
2022-09-21T09:16:04.567Z,13.95
2022-09-21T09:18:41.412Z,13.82
2022-09-21T09:21:31.434Z,13.18
2022-09-21T09:24:28.105Z,11.82
2022-09-21T09:27:25.096Z,14.25
2022-09-21T09:30:04.580Z,11.13
2022-09-21T09:32:45.645Z,11.48
2022-09-21T09:35:29.532Z,12.75
2022-09-21T09:38:17.483Z,14.13
2022-09-21T09:41:00.597Z,11.98
2022-09-21T09:44:04.983Z,12.98
2022-09-21T09:46:56.210Z,8.25
2022-09-21T09:49:51.690Z,13.68
2022-09-21T09:52:19.894Z,6.68
2022-09-21T09:54:47.306Z,11.55
2022-09-21T09:57:16.184Z,6.35
2022-09-21T09:59:54.876Z,9.15
2022-09-21T10:02:24.665Z,9.20
2022-09-21T10:05:03.773Z,9.13
2022-09-21T10:07:47.565Z,11.68
2022-09-21T10:10:41.462Z,9.80
2022-09-21T10:13:19.792Z,7.15
2022-09-21T10:16:06.170Z,8.52
2022-09-21T10:18:34.114Z,8.93
2022-09-21T10:21:07.740Z,10.02
2022-09-21T10:23:39.050Z,9.45
2022-09-21T10:26:10.909Z,16.15
2022-09-21T10:28:55.011Z,7.40
2022-09-21T10:31:25.672Z,9.13
2022-09-21T10:34:07.717Z,8.32
2022-09-21T10:36:37.967Z,9.48
2022-09-21T10:39:34.008Z,6.93
2022-09-21T10:42:13.704Z,9.25
2022-09-21T10:44:44.477Z,7.55
2022-09-21T10:47:23.984Z,9.18
2022-09-21T10:49:57.302Z,5.80
2022-09-21T10:52:33.395Z,5.82
2022-09-21T10:55:00.693Z,8.82
2022-09-21T10:57:29.651Z,6.72
2022-09-21T10:59:57.377Z,8.70
2022-09-21T11:02:29.751Z,9.40
2022-09-21T11:07:55.406Z,5.30
2022-09-21T11:10:43.819Z,6.28
2022-09-21T11:13:54.325Z,6.07
2022-09-21T11:16:33.349Z,8.55
2022-09-21T11:19:30.589Z,15.50
2022-09-21T11:22:18.815Z,9.57
2022-09-21T11:25:02.564Z,11.75
2022-09-21T11:27:37.211Z,5.57
2022-09-21T11:30:11.995Z,5.75
2022-09-21T11:32:45.002Z,7.28
2022-09-21T11:35:33.596Z,4.47
2022-09-21T11:38:18.780Z,2.58
2022-09-21T11:41:01.715Z,5.30
2022-09-21T11:43:55.701Z,5.22
2022-09-21T11:46:25.666Z,6.82
2022-09-21T11:49:06.572Z,4.57
2022-09-21T11:52:01.511Z,6.32
2022-09-21T11:54:44.541Z,3.42
2022-09-21T11:57:19.246Z,6.85
2022-09-21T12:00:10.249Z,5.28
2022-09-21T12:03:31.395Z,3.35
2022-09-21T12:06:06.777Z,7.63
2022-09-21T12:08:36.913Z,4.38
2022-09-21T12:11:21.676Z,6.32
2022-09-21T12:14:08.799Z,5.65
2022-09-21T12:16:50.903Z,4.82
2022-09-21T12:19:17.682Z,2.95
2022-09-21T12:21:49.281Z,3.30
2022-09-21T12:24:31.207Z,4.25
2022-09-21T12:27:04.131Z,7.80
2022-09-21T12:29:48.050Z,4.28
2022-09-21T12:32:20.157Z,3.60
2022-09-21T12:34:53.811Z,4.72
2022-09-21T12:37:33.497Z,5.75
2022-09-21T12:40:09.900Z,5.00
2022-09-21T12:42:50.813Z,6.93
2022-09-21T12:45:29.711Z,104.78
2022-09-21T12:48:19.419Z,3.88
2022-09-21T12:51:15.990Z,3.67
2022-09-21T12:53:50.797Z,4.53
2022-09-21T12:56:34.279Z,4.65
2022-09-21T12:59:11.133Z,6.35
2022-09-21T13:01:52.245Z,4.55
2022-09-21T13:04:43.245Z,6.88
2022-09-21T13:07:35.026Z,6.35
2022-09-21T13:10:19.235Z,4.80
2022-09-21T13:12:53.317Z,6.05
2022-09-21T13:15:47.884Z,6.78
2022-09-21T13:18:23.432Z,10.45
2022-09-21T13:20:52.150Z,5.28
2022-09-21T13:23:26.855Z,5.10
2022-09-21T13:26:05.221Z,3.78
2022-09-21T13:28:50.841Z,3.95
2022-09-21T13:31:49.061Z,9.25
2022-09-21T13:34:15.899Z,8.93
2022-09-21T13:36:43.552Z,13.70
2022-09-21T13:39:18.520Z,5.85
2022-09-21T13:42:02.221Z,3.00
2022-09-21T13:44:41.489Z,6.07
2022-09-21T13:47:12.142Z,7.78
2022-09-21T13:49:43.455Z,5.18
2022-09-21T13:52:13.300Z,10.93
2022-09-21T13:55:31.046Z,6.70
2022-09-21T13:58:21.445Z,7.63
2022-09-21T14:00:59.108Z,6.35
2022-09-21T14:03:42.086Z,4.55
2022-09-21T14:06:19.472Z,5.38
2022-09-21T14:09:00.969Z,6.93
2022-09-21T14:11:40.375Z,3.08
2022-09-21T14:14:22.624Z,2.72
2022-09-21T14:16:52.066Z,11.13
2022-09-21T14:19:19.247Z,5.45
2022-09-21T14:22:04.236Z,6.90
2022-09-21T14:24:38.453Z,7.00
2022-09-21T14:27:25.332Z,8.68
2022-09-21T14:30:25.014Z,4.82
2022-09-21T14:32:59.778Z,7.90
2022-09-21T14:35:37.690Z,6.63
2022-09-21T14:38:25.695Z,6.72
2022-09-21T14:40:59.532Z,9.68
2022-09-21T14:43:34.501Z,6.45
2022-09-21T14:46:17.058Z,8.13
2022-09-21T14:49:01.860Z,5.95
2022-09-21T14:51:55.675Z,5.72
2022-09-21T14:54:57.188Z,7.57
2022-09-21T14:57:37.459Z,4.90
2022-09-21T15:00:26.299Z,5.78
2022-09-21T15:03:09.425Z,7.50
2022-09-21T15:05:44.675Z,3.75
2022-09-21T15:08:46.348Z,8.05
2022-09-21T15:11:26.117Z,7.75
2022-09-21T15:14:11.799Z,6.72
2022-09-21T15:16:41.489Z,5.70
2022-09-21T15:19:28.874Z,5.95
2022-09-21T15:22:21.435Z,4.35
2022-09-21T15:25:02.606Z,4.18
2022-09-21T15:27:33.179Z,5.93
2022-09-21T15:30:25.904Z,6.78
2022-09-21T15:32:55.424Z,6.95
2022-09-21T15:35:33.563Z,6.63
2022-09-21T15:38:01.269Z,3.53
2022-09-21T15:40:31.836Z,7.50
2022-09-21T15:43:04.547Z,5.85
2022-09-21T15:45:58.486Z,5.53
2022-09-21T15:48:33.097Z,9.13
2022-09-21T15:51:09.339Z,6.95
2022-09-21T15:53:49.057Z,5.97
2022-09-21T15:56:25.671Z,5.38
2022-09-21T15:59:03.541Z,7.00
2022-09-21T16:01:31.539Z,5.45
2022-09-21T16:04:06.909Z,9.25
2022-09-21T16:06:42.132Z,4.68
2022-09-21T16:09:37.357Z,6.20
2022-09-21T16:12:24.211Z,4.80
2022-09-21T16:14:53.835Z,7.93
2022-09-21T16:17:27.559Z,7.05
2022-09-21T16:19:54.613Z,9.00
2022-09-21T16:22:29.729Z,6.32
2022-09-21T16:25:01.612Z,5.75
2022-09-21T16:27:32.179Z,5.55
2022-09-21T16:30:03.156Z,5.90
2022-09-21T16:32:34.430Z,5.40
2022-09-21T16:35:29.048Z,5.25
2022-09-21T16:37:58.033Z,5.82
2022-09-21T16:40:26.935Z,8.10
2022-09-21T16:42:54.551Z,2.88
2022-09-21T16:45:31.327Z,4.82
2022-09-21T16:47:59.451Z,5.70
2022-09-21T16:50:26.660Z,7.35
2022-09-21T16:52:54.723Z,3.30
2022-09-21T16:55:25.581Z,7.13
2022-09-21T16:57:53.855Z,7.07
2022-09-21T17:00:22.369Z,4.57
2022-09-21T17:02:50.324Z,5.72
2022-09-21T17:05:19.500Z,8.18
2022-09-21T17:07:56.008Z,7.47
2022-09-21T17:10:29.182Z,4.93
2022-09-21T17:12:57.150Z,5.55
2022-09-21T17:15:25.367Z,5.90
2022-09-21T17:17:52.218Z,3.95
2022-09-21T17:20:28.705Z,6.28
2022-09-21T17:22:56.081Z,6.38
2022-09-21T17:25:24.304Z,11.18
2022-09-21T17:27:53.116Z,6.32
2022-09-21T17:30:21.084Z,7.45
2022-09-21T17:32:50.101Z,11.63
2022-09-21T17:35:28.798Z,11.50
2022-09-21T17:37:55.813Z,8.35
2022-09-21T17:40:24.172Z,12.80
2022-09-21T17:42:56.806Z,7.15
2022-09-21T17:45:37.769Z,10.48
2022-09-21T17:48:06.107Z,8.38
2022-09-21T17:50:33.059Z,6.28
2022-09-21T17:53:19.120Z,14.90
2022-09-21T17:55:54.252Z,7.88
2022-09-21T17:58:57.018Z,10.75
2022-09-21T18:01:41.469Z,12.90
2022-09-21T18:04:13.897Z,37.22
2022-09-21T18:06:41.018Z,57.65
2022-09-21T18:09:09.693Z,43.33
2022-09-21T18:12:00.117Z,44.85
2022-09-21T18:15:19.039Z,48.50
2022-09-21T18:18:19.895Z,41.55
2022-09-21T18:21:15.456Z,34.83
2022-09-21T18:23:57.765Z,48.63
2022-09-21T18:26:24.909Z,47.75
2022-09-21T18:28:57.073Z,43.67
2022-09-21T18:31:42.226Z,34.85
2022-09-21T18:34:13.222Z,27.35
2022-09-21T18:37:03.413Z,21.60
2022-09-21T18:40:09.182Z,19.58
2022-09-21T18:43:15.097Z,20.83
2022-09-21T18:45:57.312Z,20.83
2022-09-21T18:48:50.555Z,19.23
2022-09-21T18:51:47.026Z,19.17
2022-09-21T18:54:23.570Z,22.02
2022-09-21T18:56:50.754Z,24.92
2022-09-21T18:59:19.066Z,18.33
2022-09-21T19:01:47.117Z,18.08
2022-09-21T19:04:17.529Z,17.77
2022-09-21T19:07:13.455Z,11.95
2022-09-21T19:09:53.886Z,14.60
2022-09-21T19:12:34.883Z,16.38
2022-09-21T19:15:36.431Z,17.77
2022-09-21T19:18:38.247Z,20.83
2022-09-21T19:21:20.933Z,18.33
2022-09-21T19:24:30.582Z,22.85
2022-09-21T19:27:24.034Z,19.65
2022-09-21T19:30:08.872Z,20.38
2022-09-21T19:33:00.085Z,19.02
2022-09-21T19:35:28.207Z,18.10
2022-09-21T19:37:58.656Z,26.73
2022-09-21T19:40:28.391Z,23.85
2022-09-21T19:43:03.710Z,17.70
2022-09-21T19:46:09.786Z,20.20
2022-09-21T19:48:51.809Z,18.75
2022-09-21T19:51:39.945Z,19.43
2022-09-21T19:54:33.550Z,19.90
2022-09-21T19:57:19.192Z,17.30
2022-09-21T19:59:47.932Z,16.98
2022-09-21T20:02:27.097Z,24.38
2022-09-21T20:05:03.129Z,23.00
2022-09-21T20:07:47.174Z,21.55
2022-09-21T20:10:26.925Z,21.25
2022-09-21T20:13:20.789Z,27.48
2022-09-21T20:16:20.244Z,23.27
2022-09-21T20:18:59.014Z,26.83
2022-09-21T20:21:38.353Z,25.33
2022-09-21T20:24:24.704Z,27.83
2022-09-21T20:26:52.797Z,26.98
2022-09-21T20:29:21.873Z,16.60
2022-09-21T20:31:52.628Z,14.23
2022-09-21T20:34:20.149Z,14.68
2022-09-21T20:36:47.180Z,15.55
2022-09-21T20:39:15.114Z,13.57
2022-09-21T20:41:42.070Z,17.80
2022-09-21T20:44:12.436Z,14.05
2022-09-21T20:46:39.209Z,13.60
2022-09-21T20:49:08.552Z,13.70
2022-09-21T20:51:39.105Z,20.02
2022-09-21T20:54:06.390Z,12.52
2022-09-21T20:56:33.670Z,20.20
2022-09-21T20:59:05.143Z,13.93
2022-09-21T21:01:32.414Z,15.07
2022-09-21T21:04:02.784Z,17.50
2022-09-21T21:06:35.156Z,13.85
2022-09-21T21:09:01.994Z,19.27
2022-09-21T21:11:28.889Z,16.98
2022-09-21T21:13:58.320Z,13.15
2022-09-21T21:16:25.580Z,18.50
2022-09-21T21:18:52.504Z,16.25
2022-09-21T21:21:19.365Z,17.58
2022-09-21T21:24:08.939Z,16.67
2022-09-21T21:27:00.909Z,13.90
2022-09-21T21:29:24.577Z,16.35
2022-09-21T21:31:51.680Z,13.77
2022-09-21T21:34:18.768Z,12.60
2022-09-21T21:36:45.760Z,17.38
2022-09-21T21:39:12.718Z,12.70
2022-09-21T21:41:39.625Z,12.27
2022-09-21T21:44:06.653Z,18.13
2022-09-21T21:46:33.648Z,12.65
2022-09-21T21:49:00.594Z,14.27
2022-09-21T21:51:27.456Z,17.05
2022-09-21T21:53:54.589Z,18.08
2022-09-21T21:56:23.129Z,11.50
2022-09-21T21:58:55.042Z,15.90
2022-09-21T22:01:26.858Z,15.85
2022-09-21T22:03:56.591Z,14.17
2022-09-21T22:06:24.291Z,14.13
2022-09-21T22:08:53.492Z,16.38
2022-09-21T22:11:25.161Z,13.85
2022-09-21T22:13:56.363Z,17.88
2022-09-21T22:16:26.059Z,13.77
2022-09-21T22:18:54.468Z,14.00
2022-09-21T22:21:26.234Z,14.20
2022-09-21T22:24:01.044Z,14.27
2022-09-21T22:26:30.806Z,13.98
2022-09-21T22:29:00.324Z,15.25
2022-09-21T22:31:31.314Z,20.25
2022-09-21T22:33:59.469Z,25.60
2022-09-21T22:36:33.023Z,21.35
2022-09-21T22:39:00.296Z,19.88
2022-09-21T22:41:30.575Z,18.50
2022-09-21T22:43:58.440Z,18.35
2022-09-21T22:46:26.940Z,22.73
2022-09-21T22:48:53.837Z,18.40
2022-09-21T22:51:21.498Z,16.85
2022-09-21T22:53:50.051Z,19.38
2022-09-21T22:56:22.695Z,13.80
2022-09-21T23:01:38.312Z,17.15
2022-09-21T23:04:11.214Z,14.98
2022-09-21T23:06:43.005Z,20.05
2022-09-21T23:09:16.924Z,19.20
2022-09-21T23:11:47.669Z,15.10
2022-09-21T23:14:18.017Z,15.77
2022-09-21T23:16:45.751Z,17.00
2022-09-21T23:19:16.365Z,11.55
2022-09-21T23:21:46.636Z,20.00
2022-09-21T23:24:13.764Z,16.02
2022-09-21T23:26:42.111Z,17.17
2022-09-21T23:29:15.019Z,17.35
2022-09-21T23:31:45.508Z,10.13
2022-09-21T23:34:13.351Z,11.98
2022-09-21T23:36:41.063Z,11.07
2022-09-21T23:39:11.654Z,10.45
2022-09-21T23:41:39.087Z,13.20
2022-09-21T23:44:06.133Z,12.50
2022-09-21T23:46:34.990Z,11.43
2022-09-21T23:49:02.390Z,11.68
2022-09-21T23:51:30.055Z,10.93
2022-09-21T23:53:59.177Z,11.88
2022-09-21T23:56:27.029Z,12.05
2022-09-21T23:58:54.264Z,16.13
